Time;durP1;ratioP1;P1;durP2;ratioP2;P2;SDS_P1;SDS_P2;PMS_P1;PMS_P2;Temp;Humidity;BMP_temperature;BMP_pressure;BME280_temperature;BME280_humidity;BME280_pressure;Samples;Min_cycle;Max_cycle;Signal;HPM_P1;HPM_P2
2022/10/09 00:01:20;;;;;;;13.20;3.03;;;8.90;99.90;;;;;;4925684;28;20054;-59
2022/10/09 00:03:48;;;;;;;14.50;3.25;;;8.90;99.90;;;;;;4934619;28;20105;-57
2022/10/09 00:06:18;;;;;;;9.63;3.88;;;8.90;99.90;;;;;;4934648;28;20058;-58
2022/10/09 00:08:44;;;;;;;12.00;3.67;;;8.90;99.90;;;;;;4953060;28;20130;-58
2022/10/09 00:11:13;;;;;;;9.43;2.80;;;8.90;99.90;;;;;;4911323;28;20522;-60
2022/10/09 00:13:40;;;;;;;8.77;3.22;;;8.90;99.90;;;;;;4934340;28;20149;-58
2022/10/09 00:16:08;;;;;;;11.93;3.20;;;9.00;99.90;;;;;;4935616;28;20097;-58
2022/10/09 00:18:35;;;;;;;9.20;2.55;;;9.00;99.90;;;;;;4953052;28;20047;-59
2022/10/09 00:21:02;;;;;;;10.70;3.47;;;9.00;99.90;;;;;;4952787;28;21042;-58
2022/10/09 00:23:28;;;;;;;12.30;3.05;;;8.90;99.90;;;;;;4951876;28;20051;-59
2022/10/09 00:25:56;;;;;;;8.60;3.40;;;8.90;99.90;;;;;;4952557;28;20823;-58
2022/10/09 00:28:24;;;;;;;11.30;3.35;;;8.90;99.90;;;;;;4948962;28;20055;-57
2022/10/09 00:30:50;;;;;;;9.02;3.22;;;8.90;99.90;;;;;;4950228;28;20086;-59
2022/10/09 00:33:17;;;;;;;17.73;4.50;;;8.90;99.90;;;;;;4949444;28;20050;-58
2022/10/09 00:35:42;;;;;;;8.68;3.85;;;8.90;99.90;;;;;;4951358;28;20043;-60
2022/10/09 00:38:09;;;;;;;13.55;4.90;;;8.90;99.90;;;;;;4932645;28;20522;-59
2022/10/09 00:40:36;;;;;;;16.52;5.05;;;8.90;99.90;;;;;;4951530;28;20122;-59
2022/10/09 00:43:03;;;;;;;16.45;4.88;;;8.90;99.90;;;;;;4950575;28;20133;-59
2022/10/09 00:45:30;;;;;;;14.15;5.18;;;8.90;99.90;;;;;;4946951;28;20061;-58
2022/10/09 00:48:06;;;;;;;15.20;5.43;;;8.90;99.90;;;;;;4943156;28;20051;-57
2022/10/09 00:50:45;;;;;;;10.95;4.82;;;8.90;99.90;;;;;;4947841;28;20051;-56
2022/10/09 00:53:14;;;;;;;13.18;4.78;;;8.90;99.90;;;;;;4944265;28;20051;-59
2022/10/09 00:55:42;;;;;;;17.27;4.28;;;8.90;99.90;;;;;;4933921;28;20092;-59
2022/10/09 00:58:09;;;;;;;11.75;4.53;;;8.90;99.90;;;;;;4948709;28;20447;-59
2022/10/09 01:00:35;;;;;;;10.05;4.50;;;8.80;99.90;;;;;;4948450;28;20397;-59
2022/10/09 01:03:00;;;;;;;16.67;4.43;;;8.80;99.90;;;;;;4950208;28;20055;-58
2022/10/09 01:05:37;;;;;;;13.63;4.50;;;8.70;99.90;;;;;;4940481;28;21039;-59
2022/10/09 01:08:27;;;;;;;11.60;4.55;;;8.80;99.90;;;;;;4944189;28;20126;-59
2022/10/09 01:11:18;;;;;;;12.88;4.25;;;8.80;99.90;;;;;;4937017;28;20047;-58
2022/10/09 01:14:16;;;;;;;14.65;4.50;;;8.70;99.90;;;;;;4876683;28;21142;-58
2022/10/09 01:17:16;;;;;;;10.32;4.90;;;8.70;99.90;;;;;;4933219;28;20051;-59
2022/10/09 01:20:09;;;;;;;15.48;5.07;;;8.70;99.90;;;;;;4895115;28;20386;-58
2022/10/09 01:23:00;;;;;;;12.88;4.65;;;8.70;99.90;;;;;;4946676;28;20055;-59
2022/10/09 01:25:45;;;;;;;12.60;4.50;;;8.70;99.90;;;;;;4947227;28;20054;-59
2022/10/09 01:28:13;;;;;;;15.30;5.00;;;8.70;99.90;;;;;;4948350;28;20051;-59
2022/10/09 01:30:39;;;;;;;11.60;4.55;;;8.60;99.90;;;;;;4948869;28;20164;-57
2022/10/09 01:33:06;;;;;;;13.70;4.65;;;8.60;99.90;;;;;;4934252;28;20046;-59
2022/10/09 01:35:32;;;;;;;9.15;3.78;;;8.60;99.90;;;;;;4950622;28;20046;-58
2022/10/09 01:38:00;;;;;;;11.98;4.05;;;8.60;99.90;;;;;;4947517;28;20524;-59
2022/10/09 01:40:27;;;;;;;12.73;4.25;;;8.60;99.90;;;;;;4951513;28;20057;-59
2022/10/09 01:42:54;;;;;;;14.77;4.82;;;8.60;99.90;;;;;;4949110;28;20486;-56
2022/10/09 01:45:20;;;;;;;8.60;4.35;;;8.60;99.90;;;;;;4945557;28;20126;-58
2022/10/09 01:47:46;;;;;;;11.80;4.50;;;8.60;99.90;;;;;;4948719;28;20774;-59
2022/10/09 01:50:21;;;;;;;13.50;4.50;;;8.60;99.90;;;;;;4946886;28;20429;-57
2022/10/09 01:52:52;;;;;;;9.70;4.10;;;8.60;99.90;;;;;;4948470;28;20049;-58
2022/10/09 01:55:36;;;;;;;9.73;4.40;;;8.60;99.90;;;;;;4948870;28;20327;-59
2022/10/09 01:58:24;;;;;;;9.82;4.22;;;8.60;99.90;;;;;;4948631;28;20165;-59
2022/10/09 02:01:25;;;;;;;10.93;4.18;;;8.50;99.90;;;;;;4947961;28;20055;-59
2022/10/09 02:03:53;;;;;;;10.50;4.07;;;8.50;99.90;;;;;;4948794;28;20133;-59
2022/10/09 02:06:20;;;;;;;8.35;4.00;;;8.50;99.90;;;;;;4951948;28;20460;-58
2022/10/09 02:08:49;;;;;;;8.55;3.97;;;8.40;99.90;;;;;;4948976;28;20509;-58
2022/10/09 02:11:15;;;;;;;10.75;3.92;;;8.40;99.90;;;;;;4949955;28;20043;-58
2022/10/09 02:13:43;;;;;;;9.95;4.40;;;8.40;99.90;;;;;;4941672;28;20042;-58
2022/10/09 02:16:11;;;;;;;16.88;4.53;;;8.40;99.90;;;;;;4950105;28;20063;-58
2022/10/09 02:18:46;;;;;;;9.05;4.15;;;8.40;99.90;;;;;;4951888;28;20738;-58
2022/10/09 02:21:20;;;;;;;12.45;4.70;;;8.40;99.90;;;;;;4950804;28;20133;-58
2022/10/09 02:23:49;;;;;;;16.58;4.40;;;8.40;99.90;;;;;;4936397;28;20536;-59
2022/10/09 02:26:15;;;;;;;6.88;3.85;;;8.40;99.90;;;;;;4950841;28;20082;-59
2022/10/09 02:28:41;;;;;;;13.27;4.32;;;8.40;99.90;;;;;;4948679;28;20083;-58
2022/10/09 02:31:20;;;;;;;11.45;3.95;;;8.40;99.90;;;;;;4949085;28;20053;-59
2022/10/09 02:34:00;;;;;;;13.43;4.63;;;8.30;99.90;;;;;;4947172;28;20122;-56
2022/10/09 02:36:26;;;;;;;10.77;4.30;;;8.30;99.90;;;;;;4936611;28;20054;-58
2022/10/09 02:38:54;;;;;;;10.38;4.18;;;8.30;99.90;;;;;;4922748;28;20063;-57
2022/10/09 02:41:20;;;;;;;14.23;4.95;;;8.20;99.90;;;;;;4947481;28;20497;-59
2022/10/09 02:43:46;;;;;;;9.90;4.80;;;8.20;99.90;;;;;;4949325;28;20051;-59
2022/10/09 02:46:11;;;;;;;10.32;4.25;;;8.20;99.90;;;;;;4947725;28;20046;-59
2022/10/09 02:48:37;;;;;;;11.80;4.03;;;8.20;99.90;;;;;;4945832;28;20123;-58
2022/10/09 02:51:03;;;;;;;11.45;4.80;;;8.10;99.90;;;;;;4945185;28;20137;-57
2022/10/09 02:53:29;;;;;;;20.83;4.38;;;8.10;99.90;;;;;;4947073;28;20051;-59
2022/10/09 02:55:56;;;;;;;11.25;4.60;;;8.10;99.90;;;;;;4948164;28;20039;-57
2022/10/09 02:58:21;;;;;;;11.25;4.15;;;8.10;99.90;;;;;;4944001;28;20139;-57
2022/10/09 03:00:52;;;;;;;14.13;4.35;;;8.00;99.90;;;;;;4948972;28;20046;-58
2022/10/09 03:03:19;;;;;;;13.13;4.25;;;8.00;99.90;;;;;;4949212;28;20046;-58
2022/10/09 03:05:45;;;;;;;7.65;4.32;;;8.10;99.90;;;;;;4947213;28;20343;-58
2022/10/09 03:08:11;;;;;;;18.52;4.68;;;8.00;99.90;;;;;;4946061;28;20545;-58
2022/10/09 03:10:38;;;;;;;13.00;4.68;;;8.00;99.90;;;;;;4939476;28;20042;-58
2022/10/09 03:13:05;;;;;;;11.02;4.43;;;8.00;99.90;;;;;;4946434;28;20430;-58
2022/10/09 03:15:35;;;;;;;10.13;4.32;;;7.90;99.90;;;;;;4947981;28;20050;-58
2022/10/09 03:18:01;;;;;;;15.43;4.78;;;7.90;99.90;;;;;;4950116;28;20693;-57
2022/10/09 03:20:29;;;;;;;12.20;4.50;;;7.90;99.90;;;;;;4953297;28;20086;-58
2022/10/09 03:22:55;;;;;;;10.23;4.00;;;7.90;99.90;;;;;;4942681;28;20482;-59
2022/10/09 03:25:22;;;;;;;8.05;3.30;;;7.90;99.90;;;;;;4952795;28;20506;-59
2022/10/09 03:27:47;;;;;;;9.23;3.95;;;7.90;99.90;;;;;;4952068;28;20134;-58
2022/10/09 03:30:13;;;;;;;10.02;3.97;;;7.90;99.90;;;;;;4954242;28;20378;-60
2022/10/09 03:32:39;;;;;;;10.77;4.22;;;7.80;99.90;;;;;;4944226;28;20093;-56
2022/10/09 03:35:05;;;;;;;9.52;3.83;;;7.80;99.90;;;;;;4935097;28;20054;-55
2022/10/09 03:37:31;;;;;;;14.95;5.13;;;7.80;99.90;;;;;;4951180;28;20043;-59
2022/10/09 03:39:57;;;;;;;11.55;5.07;;;7.80;99.90;;;;;;4952431;28;20081;-58
2022/10/09 03:42:23;;;;;;;11.40;4.07;;;7.80;99.90;;;;;;4941474;28;20354;-58
2022/10/09 03:44:49;;;;;;;7.57;4.10;;;7.80;99.90;;;;;;4950242;28;20080;-59
2022/10/09 03:47:16;;;;;;;8.95;4.55;;;7.80;99.90;;;;;;4951011;28;20050;-59
2022/10/09 03:49:42;;;;;;;12.60;4.22;;;7.70;99.90;;;;;;4951435;28;20050;-57
2022/10/09 03:52:07;;;;;;;14.23;4.85;;;7.70;99.90;;;;;;4950556;28;20069;-58
2022/10/09 03:54:33;;;;;;;14.68;4.72;;;7.70;99.90;;;;;;4954904;28;20146;-58
2022/10/09 03:56:59;;;;;;;10.18;5.20;;;7.70;99.90;;;;;;4951715;28;20062;-59
2022/10/09 03:59:25;;;;;;;10.23;4.65;;;7.70;99.90;;;;;;4951862;28;20038;-59
2022/10/09 04:01:51;;;;;;;9.05;4.75;;;7.60;99.90;;;;;;4933506;28;20043;-58
2022/10/09 04:04:16;;;;;;;11.15;4.90;;;7.60;99.90;;;;;;4951668;28;20038;-57
2022/10/09 04:06:43;;;;;;;11.20;5.75;;;7.60;99.90;;;;;;4952244;28;20053;-58
2022/10/09 04:09:08;;;;;;;17.17;6.47;;;7.60;99.90;;;;;;4951828;28;20050;-59
2022/10/09 04:11:34;;;;;;;12.70;5.70;;;7.60;99.90;;;;;;4937818;28;20576;-59
2022/10/09 04:14:01;;;;;;;11.80;5.15;;;7.50;99.90;;;;;;4951847;28;20473;-58
2022/10/09 04:16:26;;;;;;;13.88;5.50;;;7.50;99.90;;;;;;4952327;28;20077;-58
2022/10/09 04:18:52;;;;;;;14.13;5.32;;;7.50;99.90;;;;;;4951167;28;20078;-58
2022/10/09 04:21:18;;;;;;;17.08;6.03;;;7.50;99.90;;;;;;4948154;28;20058;-58
2022/10/09 04:23:44;;;;;;;10.15;5.68;;;7.50;99.90;;;;;;4950106;28;20058;-59
2022/10/09 04:26:11;;;;;;;12.15;5.68;;;7.50;99.90;;;;;;4941651;28;20051;-58
2022/10/09 04:28:37;;;;;;;16.20;5.97;;;7.50;99.90;;;;;;4935585;28;20047;-59
2022/10/09 04:31:03;;;;;;;13.15;6.35;;;7.50;99.90;;;;;;4940901;28;20059;-59
2022/10/09 04:33:29;;;;;;;13.98;5.80;;;7.50;99.90;;;;;;4940100;28;20502;-59
2022/10/09 04:35:55;;;;;;;10.88;6.20;;;7.50;99.90;;;;;;4934684;28;20047;-59
2022/10/09 04:38:22;;;;;;;17.05;6.20;;;7.50;99.90;;;;;;4952909;28;20154;-59
2022/10/09 04:40:59;;;;;;;13.63;5.95;;;7.50;99.90;;;;;;4952815;28;20047;-58
2022/10/09 04:43:25;;;;;;;11.68;5.43;;;7.50;99.90;;;;;;4949150;28;20117;-57
2022/10/09 04:45:51;;;;;;;12.43;5.93;;;7.50;99.90;;;;;;4947164;28;20047;-59
2022/10/09 04:48:16;;;;;;;10.23;5.82;;;7.40;99.90;;;;;;4926692;28;20632;-58
2022/10/09 04:50:42;;;;;;;11.18;6.07;;;7.40;99.90;;;;;;4926794;28;20054;-59
2022/10/09 04:53:08;;;;;;;14.98;6.90;;;7.40;99.90;;;;;;4943926;28;20089;-58
2022/10/09 04:55:42;;;;;;;14.18;6.32;;;7.40;99.90;;;;;;4936492;28;20054;-59
2022/10/09 04:58:09;;;;;;;13.02;6.32;;;7.40;99.90;;;;;;4945646;28;20193;-59
2022/10/09 05:00:42;;;;;;;10.55;6.13;;;7.40;99.90;;;;;;4953277;28;20047;-59
2022/10/09 05:03:09;;;;;;;9.38;6.00;;;7.30;99.90;;;;;;4932286;28;20055;-57
2022/10/09 05:05:35;;;;;;;9.00;6.07;;;7.30;99.90;;;;;;4952576;28;20093;-57
2022/10/09 05:08:01;;;;;;;12.63;6.47;;;7.30;99.90;;;;;;4949055;28;20133;-59
2022/10/09 05:10:27;;;;;;;13.85;6.43;;;7.30;99.90;;;;;;4950219;28;20500;-58
2022/10/09 05:12:53;;;;;;;10.55;6.28;;;7.30;99.90;;;;;;4948752;28;20035;-57
2022/10/09 05:15:19;;;;;;;12.27;6.88;;;7.30;99.90;;;;;;4946419;28;20046;-58
2022/10/09 05:17:45;;;;;;;17.17;6.78;;;7.20;99.90;;;;;;4951050;28;20382;-59
2022/10/09 05:20:10;;;;;;;14.32;6.53;;;7.20;99.90;;;;;;4950497;28;20130;-60
2022/10/09 05:22:37;;;;;;;11.60;6.43;;;7.20;99.90;;;;;;4957106;28;20042;-58
2022/10/09 05:25:03;;;;;;;10.32;6.57;;;7.20;99.90;;;;;;4951575;28;20055;-60
2022/10/09 05:27:28;;;;;;;17.05;7.47;;;7.10;99.90;;;;;;4949714;28;20053;-58
2022/10/09 05:29:54;;;;;;;11.20;7.13;;;7.10;99.90;;;;;;4950544;28;20042;-59
2022/10/09 05:32:20;;;;;;;14.02;7.50;;;7.10;99.90;;;;;;4948592;28;20054;-59
2022/10/09 05:34:46;;;;;;;14.35;7.97;;;7.10;99.90;;;;;;4948718;28;20123;-59
2022/10/09 05:37:12;;;;;;;16.17;8.38;;;7.10;99.90;;;;;;4932318;28;20404;-59
2022/10/09 05:39:38;;;;;;;15.75;8.45;;;7.10;99.90;;;;;;4949944;28;20051;-57
2022/10/09 05:42:04;;;;;;;10.52;7.95;;;7.00;99.90;;;;;;4951652;28;20047;-59
2022/10/09 05:44:30;;;;;;;17.50;8.25;;;7.00;99.90;;;;;;4939889;28;20078;-60
2022/10/09 05:46:56;;;;;;;15.40;8.32;;;7.00;99.90;;;;;;4933880;28;20150;-59
2022/10/09 05:49:21;;;;;;;15.13;7.63;;;7.00;99.90;;;;;;4953865;28;20393;-59
2022/10/09 05:51:48;;;;;;;19.60;8.00;;;7.00;99.90;;;;;;4949797;28;20062;-59
2022/10/09 05:54:16;;;;;;;12.93;7.90;;;7.00;99.90;;;;;;4949792;28;20109;-59
2022/10/09 05:56:43;;;;;;;14.50;7.47;;;7.00;99.90;;;;;;4939690;28;23341;-60
2022/10/09 05:59:13;;;;;;;11.88;8.38;;;7.00;99.90;;;;;;4940225;28;20114;-59
2022/10/09 06:01:45;;;;;;;14.50;8.32;;;7.00;99.90;;;;;;4951136;28;20576;-59
2022/10/09 06:04:22;;;;;;;12.93;8.33;;;7.00;99.90;;;;;;4950909;28;20454;-58
2022/10/09 06:06:48;;;;;;;18.58;7.78;;;7.00;99.90;;;;;;4951043;28;20543;-59
2022/10/09 06:09:22;;;;;;;10.90;7.82;;;7.00;99.90;;;;;;4940864;28;20118;-58
2022/10/09 06:11:49;;;;;;;12.30;8.15;;;7.00;99.90;;;;;;4945446;28;20051;-59
2022/10/09 06:14:16;;;;;;;15.68;8.70;;;7.00;99.90;;;;;;4948614;28;20042;-59
2022/10/09 06:16:43;;;;;;;16.70;7.97;;;7.00;99.90;;;;;;4941021;28;20054;-60
2022/10/09 06:19:12;;;;;;;13.70;8.40;;;7.00;99.90;;;;;;4946965;28;20725;-59
2022/10/09 06:21:38;;;;;;;16.50;8.32;;;7.00;99.90;;;;;;4942259;28;20169;-57
2022/10/09 06:24:04;;;;;;;18.77;8.75;;;7.00;99.90;;;;;;4941381;28;20047;-58
2022/10/09 06:26:31;;;;;;;15.38;8.48;;;7.00;99.90;;;;;;4945761;28;20057;-59
2022/10/09 06:28:59;;;;;;;18.83;8.32;;;7.00;99.90;;;;;;4944709;28;20047;-58
2022/10/09 06:31:28;;;;;;;14.35;8.85;;;7.00;99.90;;;;;;4930478;28;20142;-58
2022/10/09 06:33:53;;;;;;;14.07;8.50;;;7.00;99.90;;;;;;4950841;28;20059;-58
2022/10/09 06:36:21;;;;;;;14.60;8.70;;;7.00;99.90;;;;;;4950226;28;20127;-59
2022/10/09 06:38:47;;;;;;;15.55;8.10;;;7.00;99.90;;;;;;4949455;28;20636;-59
2022/10/09 06:41:15;;;;;;;17.75;8.77;;;7.00;99.90;;;;;;4949884;28;20042;-58
2022/10/09 06:43:42;;;;;;;14.75;8.43;;;7.10;99.90;;;;;;4949819;28;20137;-59
2022/10/09 06:46:11;;;;;;;14.10;8.63;;;7.10;99.90;;;;;;4950291;28;20051;-59
2022/10/09 06:48:39;;;;;;;15.07;8.93;;;7.10;99.90;;;;;;4946267;28;20042;-59
2022/10/09 06:51:09;;;;;;;14.93;8.15;;;7.20;99.90;;;;;;4942276;28;20048;-58
2022/10/09 06:53:43;;;;;;;14.68;8.18;;;7.10;99.90;;;;;;4947223;28;20051;-60
2022/10/09 06:56:09;;;;;;;15.45;8.75;;;7.20;99.90;;;;;;4951295;28;20948;-59
2022/10/09 06:58:36;;;;;;;14.43;7.85;;;7.20;99.90;;;;;;4952650;28;20058;-59
2022/10/09 07:01:08;;;;;;;14.52;8.95;;;7.30;99.90;;;;;;4950251;28;20055;-58
2022/10/09 07:03:36;;;;;;;12.63;8.25;;;7.30;99.90;;;;;;4929712;28;20133;-58
2022/10/09 07:06:06;;;;;;;17.38;8.88;;;7.40;99.90;;;;;;4947694;28;20565;-58
2022/10/09 07:08:32;;;;;;;15.75;8.25;;;7.40;99.90;;;;;;4938276;28;20122;-59
2022/10/09 07:10:58;;;;;;;16.92;7.88;;;7.40;99.90;;;;;;4947844;28;20127;-58
2022/10/09 07:13:24;;;;;;;17.90;7.97;;;7.50;99.90;;;;;;4943472;28;20061;-59
2022/10/09 07:15:49;;;;;;;10.27;7.22;;;7.50;99.90;;;;;;4923004;28;20047;-59
2022/10/09 07:18:15;;;;;;;14.02;7.80;;;7.60;99.90;;;;;;4945056;28;20145;-58
2022/10/09 07:20:41;;;;;;;13.07;8.15;;;7.60;99.90;;;;;;4954464;28;20161;-58
2022/10/09 07:23:07;;;;;;;19.88;8.77;;;7.70;99.90;;;;;;4949924;28;20138;-58
2022/10/09 07:25:37;;;;;;;18.95;9.35;;;7.80;99.90;;;;;;4932709;28;20050;-59
2022/10/09 07:28:03;;;;;;;24.17;10.50;;;7.90;99.90;;;;;;4953656;28;20494;-58
2022/10/09 07:30:28;;;;;;;22.85;11.70;;;7.80;99.90;;;;;;4951528;28;20062;-59
2022/10/09 07:32:54;;;;;;;23.65;13.40;;;7.90;99.90;;;;;;4955787;28;20145;-59
2022/10/09 07:35:20;;;;;;;22.83;14.23;;;7.90;99.90;;;;;;4944604;28;20050;-59
2022/10/09 07:37:45;;;;;;;24.85;15.00;;;8.00;99.90;;;;;;4950245;28;20054;-59
2022/10/09 07:40:11;;;;;;;26.92;15.30;;;8.00;99.90;;;;;;4951596;28;20059;-59
2022/10/09 07:42:37;;;;;;;23.50;15.80;;;8.10;99.90;;;;;;4951614;28;20039;-59
2022/10/09 07:45:03;;;;;;;26.58;16.30;;;8.20;99.90;;;;;;4945527;28;20056;-59
2022/10/09 07:47:29;;;;;;;27.83;15.43;;;8.20;99.90;;;;;;4950615;28;20196;-59
2022/10/09 07:49:55;;;;;;;29.17;15.88;;;8.30;99.90;;;;;;4947792;28;20139;-57
2022/10/09 07:52:21;;;;;;;23.60;14.48;;;8.40;99.90;;;;;;4951207;28;20051;-59
2022/10/09 07:54:46;;;;;;;21.45;14.30;;;8.50;99.90;;;;;;4946163;28;20465;-58
2022/10/09 07:57:12;;;;;;;21.85;15.00;;;8.60;99.90;;;;;;4948692;28;20433;-58
2022/10/09 07:59:38;;;;;;;25.40;14.73;;;8.60;99.90;;;;;;4948451;28;20489;-59
2022/10/09 08:02:04;;;;;;;27.92;17.60;;;8.70;99.90;;;;;;4949604;28;20170;-60
2022/10/09 08:04:30;;;;;;;22.13;14.35;;;8.80;99.90;;;;;;4931290;28;20530;-58
2022/10/09 08:06:57;;;;;;;22.48;15.07;;;9.00;99.90;;;;;;4918301;28;20132;-59
2022/10/09 08:09:23;;;;;;;25.67;14.68;;;9.10;99.90;;;;;;4950386;28;20046;-59
2022/10/09 08:11:48;;;;;;;24.15;13.50;;;9.20;99.90;;;;;;4945522;28;20051;-58
2022/10/09 08:14:14;;;;;;;23.02;13.93;;;9.30;99.90;;;;;;4919619;28;21598;-57
2022/10/09 08:16:40;;;;;;;22.17;14.07;;;9.50;99.90;;;;;;4946742;28;20067;-59
2022/10/09 08:19:06;;;;;;;19.73;12.45;;;9.60;99.90;;;;;;4938828;28;20049;-59
2022/10/09 08:21:32;;;;;;;21.90;11.95;;;9.80;99.90;;;;;;4948631;28;20054;-59
2022/10/09 08:23:58;;;;;;;21.05;11.90;;;9.90;99.90;;;;;;4944150;28;20046;-59
2022/10/09 08:26:26;;;;;;;19.35;11.93;;;10.00;99.90;;;;;;4948568;28;20086;-59
2022/10/09 08:28:57;;;;;;;17.08;11.48;;;10.10;99.90;;;;;;4946552;28;20080;-58
2022/10/09 08:31:24;;;;;;;17.38;10.13;;;10.30;99.90;;;;;;4947725;28;20047;-59
2022/10/09 08:33:54;;;;;;;16.80;10.10;;;10.40;99.90;;;;;;4948913;28;20082;-58
2022/10/09 08:36:20;;;;;;;14.77;9.40;;;10.60;99.90;;;;;;4949057;28;20173;-58
2022/10/09 08:38:46;;;;;;;16.98;9.00;;;10.70;99.90;;;;;;4955227;28;20038;-59
2022/10/09 08:41:31;;;;;;;13.98;8.13;;;10.80;99.90;;;;;;4949311;28;20498;-59
2022/10/09 08:44:05;;;;;;;13.35;7.40;;;11.00;99.90;;;;;;4946932;28;20046;-60
2022/10/09 08:46:55;;;;;;;16.90;6.60;;;11.10;99.90;;;;;;4949108;28;20102;-59
2022/10/09 08:49:58;;;;;;;14.93;6.45;;;11.30;99.90;;;;;;4944223;28;20090;-60
2022/10/09 08:52:46;;;;;;;13.88;5.95;;;11.40;99.90;;;;;;4952002;28;20149;-60
2022/10/09 08:55:53;;;;;;;14.85;6.55;;;11.50;99.90;;;;;;4953364;28;20047;-60
2022/10/09 08:58:28;;;;;;;11.25;5.53;;;11.70;99.90;;;;;;4898202;28;20090;-59
2022/10/09 09:01:00;;;;;;;13.23;4.88;;;11.80;99.90;;;;;;4947392;28;20051;-59
2022/10/09 09:03:32;;;;;;;10.20;4.72;;;11.90;99.90;;;;;;4948908;28;20046;-59
2022/10/09 09:06:06;;;;;;;20.08;5.75;;;12.10;99.90;;;;;;4948550;28;20050;-59
2022/10/09 09:08:50;;;;;;;9.63;4.40;;;12.10;99.90;;;;;;4951251;28;20053;-58
2022/10/09 09:11:44;;;;;;;13.48;4.40;;;12.30;99.90;;;;;;4945057;28;21196;-59
2022/10/09 09:14:33;;;;;;;8.32;4.40;;;12.40;99.90;;;;;;4948208;28;20051;-59
2022/10/09 09:17:17;;;;;;;9.43;4.15;;;12.60;99.90;;;;;;4938835;28;20070;-59
2022/10/09 09:20:04;;;;;;;9.63;4.47;;;12.70;99.90;;;;;;4935758;28;20629;-60
2022/10/09 09:22:32;;;;;;;9.95;3.95;;;12.90;99.90;;;;;;4937048;28;20125;-60
2022/10/09 09:24:59;;;;;;;9.68;3.70;;;12.90;99.90;;;;;;4951787;28;20061;-60
2022/10/09 09:27:30;;;;;;;9.88;3.95;;;13.10;99.90;;;;;;4944512;28;20564;-59
2022/10/09 09:30:13;;;;;;;9.57;3.22;;;13.20;99.90;;;;;;4946170;28;20513;-60
2022/10/09 09:32:47;;;;;;;6.80;2.70;;;13.30;99.90;;;;;;4950883;28;20071;-60
2022/10/09 09:35:47;;;;;;;5.60;2.92;;;13.40;99.90;;;;;;4937171;28;20047;-59
2022/10/09 09:38:14;;;;;;;10.02;3.35;;;13.50;99.90;;;;;;4926474;28;20047;-64
2022/10/09 09:40:39;;;;;;;13.00;3.28;;;13.60;99.90;;;;;;4931809;28;20520;-63
2022/10/09 09:43:23;;;;;;;8.18;3.17;;;13.70;99.90;;;;;;4924200;28;20055;-62
2022/10/09 09:45:55;;;;;;;8.18;2.65;;;13.80;99.90;;;;;;4936510;28;20078;-62
2022/10/09 09:48:27;;;;;;;13.47;3.60;;;13.90;99.90;;;;;;4932384;28;20058;-63
2022/10/09 09:50:53;;;;;;;7.78;2.95;;;14.00;99.90;;;;;;4951450;28;20043;-63
2022/10/09 09:53:36;;;;;;;8.75;2.60;;;14.10;99.90;;;;;;4929647;28;20128;-62
2022/10/09 09:56:02;;;;;;;7.18;2.58;;;14.10;99.90;;;;;;4933211;28;20046;-62
2022/10/09 09:58:43;;;;;;;15.93;3.20;;;14.20;99.90;;;;;;4949717;28;20066;-63
2022/10/09 10:01:22;;;;;;;10.70;2.60;;;14.30;99.90;;;;;;4923864;28;20145;-62
2022/10/09 10:03:50;;;;;;;8.20;2.00;;;14.40;99.90;;;;;;4938543;28;20043;-63
2022/10/09 10:06:33;;;;;;;10.77;2.67;;;14.50;99.90;;;;;;4931277;28;20051;-63
2022/10/09 10:09:02;;;;;;;18.13;2.97;;;14.60;99.90;;;;;;4927221;28;20414;-63
2022/10/09 10:11:29;;;;;;;5.72;2.05;;;14.60;99.90;;;;;;4935147;28;20047;-62
2022/10/09 10:13:55;;;;;;;12.95;2.50;;;14.70;99.90;;;;;;4938875;28;20051;-62
2022/10/09 10:16:32;;;;;;;9.55;2.25;;;14.80;99.90;;;;;;4920166;28;20050;-62
2022/10/09 10:18:58;;;;;;;11.38;2.90;;;14.90;99.90;;;;;;4925295;28;20075;-62
2022/10/09 10:21:24;;;;;;;8.35;2.63;;;15.00;99.90;;;;;;4910855;28;20509;-63
2022/10/09 10:24:00;;;;;;;10.98;2.75;;;15.10;99.90;;;;;;4932157;28;20051;-63
2022/10/09 10:26:35;;;;;;;7.70;2.22;;;15.20;99.90;;;;;;4933532;28;20057;-62
2022/10/09 10:29:09;;;;;;;10.18;1.85;;;15.20;99.90;;;;;;4925782;28;21249;-62
2022/10/09 10:32:04;;;;;;;12.95;2.35;;;15.30;99.90;;;;;;4953629;28;20074;-62
2022/10/09 10:34:36;;;;;;;8.25;1.88;;;15.40;99.90;;;;;;4934032;28;20486;-63
2022/10/09 10:37:12;;;;;;;5.47;1.88;;;15.50;99.90;;;;;;4952347;28;20055;-63
2022/10/09 10:40:13;;;;;;;5.03;1.90;;;15.70;99.90;;;;;;4933716;28;20071;-56
2022/10/09 10:42:50;;;;;;;8.80;2.13;;;15.80;99.90;;;;;;4957941;28;20195;-57
2022/10/09 10:45:34;;;;;;;6.13;1.80;;;15.90;99.90;;;;;;4957353;28;20051;-56
2022/10/09 10:48:02;;;;;;;7.13;1.90;;;16.00;99.90;;;;;;4956218;28;20102;-55
2022/10/09 10:50:36;;;;;;;5.72;1.95;;;16.20;99.90;;;;;;4956498;28;20165;-56
2022/10/09 10:53:20;;;;;;;6.85;1.80;;;16.30;99.90;;;;;;4936502;28;20161;-56
2022/10/09 10:55:46;;;;;;;6.82;2.00;;;16.50;99.90;;;;;;4958006;28;20146;-55
2022/10/09 10:58:28;;;;;;;5.88;1.80;;;16.70;99.90;;;;;;4956375;28;20093;-55
2022/10/09 11:01:20;;;;;;;6.75;2.00;;;16.80;99.90;;;;;;4955736;28;20050;-54
2022/10/09 11:04:08;;;;;;;6.22;1.98;;;16.90;99.90;;;;;;4957646;28;20069;-56
2022/10/09 11:06:42;;;;;;;6.68;1.58;;;16.90;99.90;;;;;;4955620;28;20046;-57
2022/10/09 11:09:23;;;;;;;6.13;1.73;;;16.80;99.00;;;;;;4958445;28;20039;-56
2022/10/09 11:12:09;;;;;;;10.93;1.73;;;16.80;98.80;;;;;;4956751;28;20805;-56
2022/10/09 11:15:15;;;;;;;6.13;1.60;;;16.90;99.10;;;;;;4921416;28;20121;-55
2022/10/09 11:17:50;;;;;;;9.48;1.92;;;17.00;98.90;;;;;;4942778;28;20049;-54
2022/10/09 11:20:34;;;;;;;4.15;1.60;;;17.10;98.40;;;;;;4958680;28;20051;-56
2022/10/09 11:23:21;;;;;;;7.80;1.73;;;17.30;97.60;;;;;;4956956;28;20077;-54
2022/10/09 11:25:57;;;;;;;9.75;1.77;;;17.30;96.70;;;;;;4946262;28;20117;-53
2022/10/09 11:28:50;;;;;;;4.80;1.45;;;17.30;96.10;;;;;;4886453;28;20054;-55
2022/10/09 11:31:23;;;;;;;8.18;1.85;;;17.30;96.10;;;;;;4900447;28;20490;-56
2022/10/09 11:33:57;;;;;;;5.60;1.23;;;17.40;95.50;;;;;;4960472;28;20039;-55
2022/10/09 11:36:43;;;;;;;7.70;1.65;;;17.50;95.50;;;;;;4955983;28;20047;-54
2022/10/09 11:39:17;;;;;;;5.20;1.45;;;17.50;95.10;;;;;;4938957;28;20069;-56
2022/10/09 11:41:49;;;;;;;5.63;1.67;;;17.60;94.50;;;;;;4947708;28;20043;-55
2022/10/09 11:44:33;;;;;;;4.35;1.52;;;17.60;94.10;;;;;;4956155;28;20047;-54
2022/10/09 11:47:14;;;;;;;10.75;1.40;;;17.60;94.30;;;;;;4955211;28;20046;-54
2022/10/09 11:49:58;;;;;;;6.30;1.50;;;17.70;93.80;;;;;;4957375;28;20902;-55
2022/10/09 11:52:30;;;;;;;5.55;1.38;;;17.70;93.80;;;;;;4956848;28;20050;-57
2022/10/09 11:55:07;;;;;;;5.90;1.83;;;17.70;94.10;;;;;;4955501;28;20054;-56
2022/10/09 11:57:34;;;;;;;9.13;1.60;;;17.70;93.90;;;;;;4943299;28;20090;-56
2022/10/09 12:00:05;;;;;;;9.48;1.55;;;17.70;93.90;;;;;;4957152;28;20513;-56
2022/10/09 12:02:31;;;;;;;10.13;2.22;;;17.80;94.10;;;;;;4954052;28;20061;-56
2022/10/09 12:04:58;;;;;;;6.65;1.70;;;17.90;94.30;;;;;;4952623;28;20050;-55
2022/10/09 12:07:35;;;;;;;5.95;1.70;;;18.00;93.90;;;;;;4954188;28;20171;-57
2022/10/09 12:10:28;;;;;;;7.97;1.70;;;18.00;93.70;;;;;;4955304;28;20051;-55
2022/10/09 12:12:59;;;;;;;4.78;1.52;;;18.10;93.60;;;;;;4957302;28;20034;-55
2022/10/09 12:15:52;;;;;;;5.90;1.80;;;18.20;93.60;;;;;;4953560;28;20066;-55
2022/10/09 12:18:31;;;;;;;7.35;1.70;;;18.40;93.70;;;;;;4958302;28;20039;-56
2022/10/09 12:20:59;;;;;;;5.18;1.50;;;18.70;93.00;;;;;;4956190;28;20046;-56
2022/10/09 12:23:30;;;;;;;4.75;1.65;;;18.80;92.70;;;;;;4939150;28;20046;-57
2022/10/09 12:25:57;;;;;;;8.88;1.42;;;18.90;92.60;;;;;;4956444;28;20047;-57
2022/10/09 12:28:23;;;;;;;7.32;1.45;;;19.10;92.10;;;;;;4954594;28;20050;-56
2022/10/09 12:30:50;;;;;;;4.53;1.50;;;19.20;91.70;;;;;;4958184;28;20054;-57
2022/10/09 12:33:45;;;;;;;3.63;1.27;;;19.30;90.90;;;;;;4956867;28;20065;-56
2022/10/09 12:36:22;;;;;;;6.55;1.50;;;19.40;90.50;;;;;;4923721;28;20430;-57
2022/10/09 12:38:48;;;;;;;4.78;1.48;;;19.40;89.60;;;;;;4952331;28;20533;-56
2022/10/09 12:41:20;;;;;;;6.10;2.13;;;19.50;89.30;;;;;;4956552;28;20105;-57
2022/10/09 12:43:47;;;;;;;;;;;19.60;87.20;;;;;;4955559;28;20679;-53
2022/10/09 12:46:13;;;;;;;9.68;1.77;;;19.60;88.50;;;;;;4952628;28;19929;-57
2022/10/09 12:48:41;;;;;;;6.82;1.65;;;19.60;87.70;;;;;;4952983;28;20059;-56
2022/10/09 12:51:21;;;;;;;4.78;1.42;;;19.70;86.50;;;;;;4948087;28;20055;-56
2022/10/09 12:53:49;;;;;;;7.43;1.75;;;19.80;86.40;;;;;;4959078;28;20476;-55
2022/10/09 12:56:31;;;;;;;5.70;1.58;;;19.90;85.20;;;;;;4951536;28;20043;-56
2022/10/09 12:58:59;;;;;;;7.53;1.60;;;19.90;85.00;;;;;;4935599;28;20043;-55
2022/10/09 13:01:25;;;;;;;5.53;1.67;;;19.90;83.80;;;;;;4915954;29;20055;-56
2022/10/09 13:04:05;;;;;;;7.32;1.77;;;20.00;83.60;;;;;;4935267;29;20046;-57
2022/10/09 13:06:44;;;;;;;7.70;1.83;;;20.20;82.50;;;;;;4928037;29;20516;-55